sensor_id;sensor_type;location;lat;lon;timestamp;P1;durP1;ratioP1;P2;durP2;ratioP2
5297;SDS011;14738;42.668;23.250;2023-06-10T00:01:06;10.67;;;9.67;;
5297;SDS011;14738;42.668;23.250;2023-06-10T00:03:31;14.10;;;11.97;;
5297;SDS011;14738;42.668;23.250;2023-06-10T00:05:57;12.93;;;11.63;;
5297;SDS011;14738;42.668;23.250;2023-06-10T00:08:23;11.63;;;10.53;;
5297;SDS011;14738;42.668;23.250;2023-06-10T00:10:49;15.97;;;12.17;;
5297;SDS011;14738;42.668;23.250;2023-06-10T00:13:15;13.50;;;12.20;;
5297;SDS011;14738;42.668;23.250;2023-06-10T00:15:41;13.10;;;11.80;;
5297;SDS011;14738;42.668;23.250;2023-06-10T00:18:07;12.67;;;11.50;;
5297;SDS011;14738;42.668;23.250;2023-06-10T00:20:35;12.73;;;11.43;;
5297;SDS011;14738;42.668;23.250;2023-06-10T00:23:03;14.17;;;11.47;;
5297;SDS011;14738;42.668;23.250;2023-06-10T00:25:28;12.20;;;11.10;;
5297;SDS011;14738;42.668;23.250;2023-06-10T00:27:54;13.07;;;11.60;;
5297;SDS011;14738;42.668;23.250;2023-06-10T00:30:20;14.67;;;12.30;;
5297;SDS011;14738;42.668;23.250;2023-06-10T00:32:46;12.40;;;11.40;;
5297;SDS011;14738;42.668;23.250;2023-06-10T00:35:11;11.70;;;10.70;;
5297;SDS011;14738;42.668;23.250;2023-06-10T00:37:37;11.90;;;10.80;;
5297;SDS011;14738;42.668;23.250;2023-06-10T00:40:03;11.70;;;10.50;;
5297;SDS011;14738;42.668;23.250;2023-06-10T00:42:29;11.47;;;10.43;;
5297;SDS011;14738;42.668;23.250;2023-06-10T00:44:54;11.03;;;10.03;;
5297;SDS011;14738;42.668;23.250;2023-06-10T00:47:20;10.80;;;9.80;;
5297;SDS011;14738;42.668;23.250;2023-06-10T00:49:47;11.30;;;10.20;;
5297;SDS011;14738;42.668;23.250;2023-06-10T00:52:13;10.93;;;9.63;;
5297;SDS011;14738;42.668;23.250;2023-06-10T00:54:41;10.03;;;9.23;;
5297;SDS011;14738;42.668;23.250;2023-06-10T00:57:06;11.70;;;10.27;;
5297;SDS011;14738;42.668;23.250;2023-06-10T00:59:32;10.50;;;9.57;;
5297;SDS011;14738;42.668;23.250;2023-06-10T01:01:58;9.83;;;9.10;;
5297;SDS011;14738;42.668;23.250;2023-06-10T01:04:24;11.47;;;9.50;;
5297;SDS011;14738;42.668;23.250;2023-06-10T01:12:41;12.27;;;11.07;;
5297;SDS011;14738;42.668;23.250;2023-06-10T01:15:14;13.20;;;11.00;;
5297;SDS011;14738;42.668;23.250;2023-06-10T01:20:42;11.07;;;10.03;;
5297;SDS011;14738;42.668;23.250;2023-06-10T01:23:11;12.13;;;11.03;;
5297;SDS011;14738;42.668;23.250;2023-06-10T01:25:37;14.17;;;9.90;;
5297;SDS011;14738;42.668;23.250;2023-06-10T01:28:15;10.77;;;9.70;;
5297;SDS011;14738;42.668;23.250;2023-06-10T01:33:18;11.37;;;10.20;;
5297;SDS011;14738;42.668;23.250;2023-06-10T01:35:50;12.07;;;10.93;;
5297;SDS011;14738;42.668;23.250;2023-06-10T01:38:16;10.60;;;9.70;;
5297;SDS011;14738;42.668;23.250;2023-06-10T01:40:44;11.10;;;10.13;;
5297;SDS011;14738;42.668;23.250;2023-06-10T01:43:11;11.90;;;10.87;;
5297;SDS011;14738;42.668;23.250;2023-06-10T01:45:37;11.17;;;10.07;;
5297;SDS011;14738;42.668;23.250;2023-06-10T01:48:02;11.93;;;10.73;;
5297;SDS011;14738;42.668;23.250;2023-06-10T01:50:28;10.23;;;9.40;;
5297;SDS011;14738;42.668;23.250;2023-06-10T01:52:53;11.30;;;10.27;;
5297;SDS011;14738;42.668;23.250;2023-06-10T01:55:18;11.27;;;10.17;;
5297;SDS011;14738;42.668;23.250;2023-06-10T01:57:44;12.30;;;11.03;;
5297;SDS011;14738;42.668;23.250;2023-06-10T02:00:10;10.77;;;9.87;;
5297;SDS011;14738;42.668;23.250;2023-06-10T02:02:35;12.03;;;10.80;;
5297;SDS011;14738;42.668;23.250;2023-06-10T02:05:01;11.20;;;10.20;;
5297;SDS011;14738;42.668;23.250;2023-06-10T02:07:26;12.67;;;11.40;;
5297;SDS011;14738;42.668;23.250;2023-06-10T02:09:52;10.20;;;9.30;;
5297;SDS011;14738;42.668;23.250;2023-06-10T02:12:17;14.03;;;10.90;;
5297;SDS011;14738;42.668;23.250;2023-06-10T02:14:42;10.83;;;9.87;;
5297;SDS011;14738;42.668;23.250;2023-06-10T02:17:08;10.23;;;9.33;;
5297;SDS011;14738;42.668;23.250;2023-06-10T02:19:37;10.57;;;9.67;;
5297;SDS011;14738;42.668;23.250;2023-06-10T02:22:07;11.93;;;9.70;;
5297;SDS011;14738;42.668;23.250;2023-06-10T02:24:35;11.60;;;9.67;;
5297;SDS011;14738;42.668;23.250;2023-06-10T02:27:02;10.73;;;9.70;;
5297;SDS011;14738;42.668;23.250;2023-06-10T02:29:31;11.40;;;9.17;;
5297;SDS011;14738;42.668;23.250;2023-06-10T02:31:58;10.50;;;9.57;;
5297;SDS011;14738;42.668;23.250;2023-06-10T02:34:23;10.50;;;9.60;;
5297;SDS011;14738;42.668;23.250;2023-06-10T02:36:49;15.07;;;8.87;;
5297;SDS011;14738;42.668;23.250;2023-06-10T02:39:16;10.90;;;9.90;;
5297;SDS011;14738;42.668;23.250;2023-06-10T02:41:41;10.43;;;9.53;;
5297;SDS011;14738;42.668;23.250;2023-06-10T02:44:07;10.30;;;9.33;;
5297;SDS011;14738;42.668;23.250;2023-06-10T02:46:32;9.40;;;8.63;;
5297;SDS011;14738;42.668;23.250;2023-06-10T02:48:57;10.63;;;9.47;;
5297;SDS011;14738;42.668;23.250;2023-06-10T02:51:23;10.00;;;9.10;;
5297;SDS011;14738;42.668;23.250;2023-06-10T02:53:48;9.77;;;8.70;;
5297;SDS011;14738;42.668;23.250;2023-06-10T02:56:15;9.90;;;9.10;;
5297;SDS011;14738;42.668;23.250;2023-06-10T02:58:41;9.37;;;8.57;;
5297;SDS011;14738;42.668;23.250;2023-06-10T03:01:07;9.80;;;8.80;;
5297;SDS011;14738;42.668;23.250;2023-06-10T03:03:34;11.03;;;10.13;;
5297;SDS011;14738;42.668;23.250;2023-06-10T03:06:00;10.00;;;9.00;;
5297;SDS011;14738;42.668;23.250;2023-06-10T03:08:25;9.83;;;9.03;;
5297;SDS011;14738;42.668;23.250;2023-06-10T03:10:51;10.53;;;9.63;;
5297;SDS011;14738;42.668;23.250;2023-06-10T03:13:16;11.10;;;10.13;;
5297;SDS011;14738;42.668;23.250;2023-06-10T03:15:41;11.70;;;10.50;;
5297;SDS011;14738;42.668;23.250;2023-06-10T03:18:07;10.20;;;9.40;;
5297;SDS011;14738;42.668;23.250;2023-06-10T03:20:32;10.30;;;9.23;;
5297;SDS011;14738;42.668;23.250;2023-06-10T03:23:02;10.13;;;9.20;;
5297;SDS011;14738;42.668;23.250;2023-06-10T03:25:27;11.90;;;9.00;;
5297;SDS011;14738;42.668;23.250;2023-06-10T03:27:53;10.87;;;9.70;;
5297;SDS011;14738;42.668;23.250;2023-06-10T03:30:19;11.47;;;10.47;;
5297;SDS011;14738;42.668;23.250;2023-06-10T03:32:44;12.70;;;11.40;;
5297;SDS011;14738;42.668;23.250;2023-06-10T03:35:09;12.10;;;11.00;;
5297;SDS011;14738;42.668;23.250;2023-06-10T03:37:35;13.67;;;11.50;;
5297;SDS011;14738;42.668;23.250;2023-06-10T03:40:01;12.53;;;11.53;;
5297;SDS011;14738;42.668;23.250;2023-06-10T03:42:26;13.70;;;12.40;;
5297;SDS011;14738;42.668;23.250;2023-06-10T03:44:51;12.30;;;11.20;;
5297;SDS011;14738;42.668;23.250;2023-06-10T03:47:17;16.40;;;13.07;;
5297;SDS011;14738;42.668;23.250;2023-06-10T03:49:43;13.03;;;11.77;;
5297;SDS011;14738;42.668;23.250;2023-06-10T03:52:08;12.57;;;11.30;;
5297;SDS011;14738;42.668;23.250;2023-06-10T03:54:34;11.40;;;10.33;;
5297;SDS011;14738;42.668;23.250;2023-06-10T03:57:00;11.83;;;9.83;;
5297;SDS011;14738;42.668;23.250;2023-06-10T03:59:26;11.43;;;10.43;;
5297;SDS011;14738;42.668;23.250;2023-06-10T04:01:51;18.00;;;11.93;;
5297;SDS011;14738;42.668;23.250;2023-06-10T04:04:16;11.03;;;10.10;;
5297;SDS011;14738;42.668;23.250;2023-06-10T04:06:42;11.63;;;10.70;;
5297;SDS011;14738;42.668;23.250;2023-06-10T04:09:08;11.73;;;10.70;;
5297;SDS011;14738;42.668;23.250;2023-06-10T04:11:34;10.57;;;9.57;;
5297;SDS011;14738;42.668;23.250;2023-06-10T04:14:00;11.53;;;10.23;;
5297;SDS011;14738;42.668;23.250;2023-06-10T04:16:26;10.90;;;10.10;;
5297;SDS011;14738;42.668;23.250;2023-06-10T04:18:52;11.63;;;10.47;;
5297;SDS011;14738;42.668;23.250;2023-06-10T04:21:17;11.70;;;10.70;;
5297;SDS011;14738;42.668;23.250;2023-06-10T04:23:43;11.17;;;10.27;;
5297;SDS011;14738;42.668;23.250;2023-06-10T04:26:08;11.50;;;10.30;;
5297;SDS011;14738;42.668;23.250;2023-06-10T04:28:34;11.90;;;10.80;;
5297;SDS011;14738;42.668;23.250;2023-06-10T04:31:01;12.00;;;10.80;;
5297;SDS011;14738;42.668;23.250;2023-06-10T04:33:28;12.67;;;11.57;;
5297;SDS011;14738;42.668;23.250;2023-06-10T04:35:54;10.73;;;9.83;;
5297;SDS011;14738;42.668;23.250;2023-06-10T04:38:19;11.20;;;10.20;;
5297;SDS011;14738;42.668;23.250;2023-06-10T04:40:45;11.90;;;10.90;;
5297;SDS011;14738;42.668;23.250;2023-06-10T04:43:11;12.37;;;11.10;;
5297;SDS011;14738;42.668;23.250;2023-06-10T04:45:37;13.33;;;9.90;;
5297;SDS011;14738;42.668;23.250;2023-06-10T04:48:02;11.03;;;9.80;;
5297;SDS011;14738;42.668;23.250;2023-06-10T04:50:28;11.30;;;10.30;;
5297;SDS011;14738;42.668;23.250;2023-06-10T04:52:53;11.73;;;10.63;;
5297;SDS011;14738;42.668;23.250;2023-06-10T04:55:22;10.00;;;9.20;;
5297;SDS011;14738;42.668;23.250;2023-06-10T04:57:47;10.13;;;9.00;;
5297;SDS011;14738;42.668;23.250;2023-06-10T05:00:13;10.77;;;9.70;;
5297;SDS011;14738;42.668;23.250;2023-06-10T05:02:39;10.33;;;9.30;;
5297;SDS011;14738;42.668;23.250;2023-06-10T05:05:04;9.70;;;8.80;;
5297;SDS011;14738;42.668;23.250;2023-06-10T05:07:31;9.77;;;9.03;;
5297;SDS011;14738;42.668;23.250;2023-06-10T05:09:56;8.63;;;7.93;;
5297;SDS011;14738;42.668;23.250;2023-06-10T05:12:22;9.57;;;8.67;;
5297;SDS011;14738;42.668;23.250;2023-06-10T05:14:47;9.30;;;8.50;;
5297;SDS011;14738;42.668;23.250;2023-06-10T05:17:13;9.57;;;8.70;;
5297;SDS011;14738;42.668;23.250;2023-06-10T05:19:38;9.20;;;8.30;;
5297;SDS011;14738;42.668;23.250;2023-06-10T05:22:03;9.83;;;8.83;;
5297;SDS011;14738;42.668;23.250;2023-06-10T05:24:29;9.83;;;8.83;;
5297;SDS011;14738;42.668;23.250;2023-06-10T05:26:54;9.13;;;8.33;;
5297;SDS011;14738;42.668;23.250;2023-06-10T05:29:20;8.80;;;8.03;;
5297;SDS011;14738;42.668;23.250;2023-06-10T05:31:45;9.40;;;8.43;;
5297;SDS011;14738;42.668;23.250;2023-06-10T05:34:11;9.07;;;8.17;;
5297;SDS011;14738;42.668;23.250;2023-06-10T05:36:36;9.43;;;8.67;;
5297;SDS011;14738;42.668;23.250;2023-06-10T05:39:02;8.77;;;7.97;;
5297;SDS011;14738;42.668;23.250;2023-06-10T05:41:28;9.60;;;8.80;;
5297;SDS011;14738;42.668;23.250;2023-06-10T05:43:53;10.20;;;9.40;;
5297;SDS011;14738;42.668;23.250;2023-06-10T05:46:19;10.63;;;9.83;;
5297;SDS011;14738;42.668;23.250;2023-06-10T05:48:45;10.13;;;9.00;;
5297;SDS011;14738;42.668;23.250;2023-06-10T05:51:10;9.30;;;8.50;;
5297;SDS011;14738;42.668;23.250;2023-06-10T05:53:35;10.00;;;8.60;;
5297;SDS011;14738;42.668;23.250;2023-06-10T05:56:01;9.30;;;8.60;;
5297;SDS011;14738;42.668;23.250;2023-06-10T05:58:26;10.80;;;9.80;;
5297;SDS011;14738;42.668;23.250;2023-06-10T06:00:52;10.37;;;9.47;;
5297;SDS011;14738;42.668;23.250;2023-06-10T06:03:17;10.80;;;9.70;;
5297;SDS011;14738;42.668;23.250;2023-06-10T06:05:43;11.23;;;10.23;;
5297;SDS011;14738;42.668;23.250;2023-06-10T06:08:09;14.60;;;9.27;;
5297;SDS011;14738;42.668;23.250;2023-06-10T06:10:34;10.13;;;9.23;;
5297;SDS011;14738;42.668;23.250;2023-06-10T06:13:00;12.30;;;10.47;;
5297;SDS011;14738;42.668;23.250;2023-06-10T06:15:26;13.37;;;10.10;;
5297;SDS011;14738;42.668;23.250;2023-06-10T06:17:51;12.73;;;10.63;;
5297;SDS011;14738;42.668;23.250;2023-06-10T06:20:18;9.57;;;8.67;;
5297;SDS011;14738;42.668;23.250;2023-06-10T06:22:46;9.97;;;9.07;;
5297;SDS011;14738;42.668;23.250;2023-06-10T06:25:12;11.40;;;8.60;;
5297;SDS011;14738;42.668;23.250;2023-06-10T06:27:37;8.03;;;7.43;;
5297;SDS011;14738;42.668;23.250;2023-06-10T06:30:03;6.57;;;6.07;;
5297;SDS011;14738;42.668;23.250;2023-06-10T06:32:29;6.90;;;6.20;;
5297;SDS011;14738;42.668;23.250;2023-06-10T06:34:54;7.37;;;6.77;;
5297;SDS011;14738;42.668;23.250;2023-06-10T06:37:23;7.73;;;7.03;;
5297;SDS011;14738;42.668;23.250;2023-06-10T06:39:50;6.83;;;6.33;;
5297;SDS011;14738;42.668;23.250;2023-06-10T06:42:16;10.80;;;7.57;;
5297;SDS011;14738;42.668;23.250;2023-06-10T06:44:42;6.77;;;6.27;;
5297;SDS011;14738;42.668;23.250;2023-06-10T06:47:08;11.83;;;6.43;;
5297;SDS011;14738;42.668;23.250;2023-06-10T06:49:34;7.63;;;6.93;;
5297;SDS011;14738;42.668;23.250;2023-06-10T06:51:59;6.90;;;6.30;;
5297;SDS011;14738;42.668;23.250;2023-06-10T06:54:24;7.07;;;6.10;;
5297;SDS011;14738;42.668;23.250;2023-06-10T06:56:50;6.43;;;5.93;;
5297;SDS011;14738;42.668;23.250;2023-06-10T06:59:15;6.60;;;6.10;;
5297;SDS011;14738;42.668;23.250;2023-06-10T07:01:44;5.67;;;5.37;;
5297;SDS011;14738;42.668;23.250;2023-06-10T07:04:09;7.27;;;6.67;;
5297;SDS011;14738;42.668;23.250;2023-06-10T07:06:35;8.93;;;5.50;;
5297;SDS011;14738;42.668;23.250;2023-06-10T07:09:00;7.00;;;6.47;;
5297;SDS011;14738;42.668;23.250;2023-06-10T07:11:25;7.10;;;6.50;;
5297;SDS011;14738;42.668;23.250;2023-06-10T07:13:51;11.07;;;6.10;;
5297;SDS011;14738;42.668;23.250;2023-06-10T07:16:16;6.00;;;5.60;;
5297;SDS011;14738;42.668;23.250;2023-06-10T07:18:44;5.13;;;4.77;;
5297;SDS011;14738;42.668;23.250;2023-06-10T07:21:10;5.60;;;5.10;;
5297;SDS011;14738;42.668;23.250;2023-06-10T07:23:35;6.80;;;5.60;;
5297;SDS011;14738;42.668;23.250;2023-06-10T07:26:00;5.90;;;5.40;;
5297;SDS011;14738;42.668;23.250;2023-06-10T07:28:26;6.07;;;5.63;;
5297;SDS011;14738;42.668;23.250;2023-06-10T07:30:51;10.30;;;6.63;;
5297;SDS011;14738;42.668;23.250;2023-06-10T07:33:17;5.53;;;5.03;;
5297;SDS011;14738;42.668;23.250;2023-06-10T07:35:42;6.50;;;5.93;;
5297;SDS011;14738;42.668;23.250;2023-06-10T07:38:08;7.63;;;6.37;;
5297;SDS011;14738;42.668;23.250;2023-06-10T07:40:33;7.03;;;6.37;;
5297;SDS011;14738;42.668;23.250;2023-06-10T07:42:59;5.90;;;5.40;;
5297;SDS011;14738;42.668;23.250;2023-06-10T07:45:24;6.17;;;5.57;;
5297;SDS011;14738;42.668;23.250;2023-06-10T07:47:50;5.80;;;5.30;;
5297;SDS011;14738;42.668;23.250;2023-06-10T07:50:15;5.57;;;5.07;;
5297;SDS011;14738;42.668;23.250;2023-06-10T07:52:41;5.83;;;5.23;;
5297;SDS011;14738;42.668;23.250;2023-06-10T07:55:06;5.73;;;5.23;;
5297;SDS011;14738;42.668;23.250;2023-06-10T07:57:32;4.90;;;4.60;;
5297;SDS011;14738;42.668;23.250;2023-06-10T08:00:01;8.37;;;5.40;;
5297;SDS011;14738;42.668;23.250;2023-06-10T08:02:29;5.63;;;5.20;;
5297;SDS011;14738;42.668;23.250;2023-06-10T08:04:55;5.30;;;4.90;;
5297;SDS011;14738;42.668;23.250;2023-06-10T08:07:20;6.07;;;5.27;;
5297;SDS011;14738;42.668;23.250;2023-06-10T08:09:47;4.60;;;4.20;;
5297;SDS011;14738;42.668;23.250;2023-06-10T08:12:12;4.50;;;4.10;;
5297;SDS011;14738;42.668;23.250;2023-06-10T08:14:38;5.40;;;4.70;;
5297;SDS011;14738;42.668;23.250;2023-06-10T08:17:03;4.93;;;4.53;;
5297;SDS011;14738;42.668;23.250;2023-06-10T08:19:30;5.70;;;5.20;;
5297;SDS011;14738;42.668;23.250;2023-06-10T08:21:56;5.10;;;4.70;;
5297;SDS011;14738;42.668;23.250;2023-06-10T08:24:22;4.63;;;4.33;;
5297;SDS011;14738;42.668;23.250;2023-06-10T08:26:47;5.30;;;4.80;;
5297;SDS011;14738;42.668;23.250;2023-06-10T08:29:13;5.97;;;5.03;;
5297;SDS011;14738;42.668;23.250;2023-06-10T08:31:42;7.60;;;5.83;;
5297;SDS011;14738;42.668;23.250;2023-06-10T08:34:08;6.03;;;5.50;;
5297;SDS011;14738;42.668;23.250;2023-06-10T08:36:34;4.90;;;4.60;;
5297;SDS011;14738;42.668;23.250;2023-06-10T08:39:00;5.67;;;5.23;;
5297;SDS011;14738;42.668;23.250;2023-06-10T08:41:26;4.60;;;4.30;;
5297;SDS011;14738;42.668;23.250;2023-06-10T08:44:04;4.57;;;4.03;;
5297;SDS011;14738;42.668;23.250;2023-06-10T08:46:35;5.37;;;4.97;;
5297;SDS011;14738;42.668;23.250;2023-06-10T08:49:02;6.97;;;4.63;;
5297;SDS011;14738;42.668;23.250;2023-06-10T08:51:30;5.90;;;5.47;;
5297;SDS011;14738;42.668;23.250;2023-06-10T08:54:11;5.87;;;5.37;;
5297;SDS011;14738;42.668;23.250;2023-06-10T08:56:43;4.97;;;4.67;;
5297;SDS011;14738;42.668;23.250;2023-06-10T08:59:13;4.63;;;4.33;;
5297;SDS011;14738;42.668;23.250;2023-06-10T09:01:39;5.90;;;5.40;;
5297;SDS011;14738;42.668;23.250;2023-06-10T09:04:05;5.40;;;4.90;;
5297;SDS011;14738;42.668;23.250;2023-06-10T09:06:31;5.03;;;4.63;;
5297;SDS011;14738;42.668;23.250;2023-06-10T09:08:58;5.00;;;4.70;;
5297;SDS011;14738;42.668;23.250;2023-06-10T09:11:24;5.47;;;4.70;;
5297;SDS011;14738;42.668;23.250;2023-06-10T09:13:50;5.17;;;4.70;;
5297;SDS011;14738;42.668;23.250;2023-06-10T09:16:16;6.03;;;5.43;;
5297;SDS011;14738;42.668;23.250;2023-06-10T09:18:42;5.47;;;5.07;;
5297;SDS011;14738;42.668;23.250;2023-06-10T09:21:07;5.70;;;5.23;;
5297;SDS011;14738;42.668;23.250;2023-06-10T09:23:33;6.30;;;5.80;;
5297;SDS011;14738;42.668;23.250;2023-06-10T09:25:59;5.57;;;5.07;;
5297;SDS011;14738;42.668;23.250;2023-06-10T09:28:24;5.73;;;5.23;;
5297;SDS011;14738;42.668;23.250;2023-06-10T09:30:50;4.93;;;4.63;;
5297;SDS011;14738;42.668;23.250;2023-06-10T09:33:28;4.97;;;4.57;;
5297;SDS011;14738;42.668;23.250;2023-06-10T09:35:53;4.63;;;4.33;;
5297;SDS011;14738;42.668;23.250;2023-06-10T09:38:21;5.00;;;4.60;;
5297;SDS011;14738;42.668;23.250;2023-06-10T09:40:50;5.27;;;4.87;;
5297;SDS011;14738;42.668;23.250;2023-06-10T09:43:17;4.30;;;3.80;;
5297;SDS011;14738;42.668;23.250;2023-06-10T09:45:43;4.07;;;3.87;;
5297;SDS011;14738;42.668;23.250;2023-06-10T09:48:08;4.13;;;3.80;;
5297;SDS011;14738;42.668;23.250;2023-06-10T09:50:34;4.50;;;4.20;;
5297;SDS011;14738;42.668;23.250;2023-06-10T09:53:00;4.77;;;4.47;;
5297;SDS011;14738;42.668;23.250;2023-06-10T09:55:27;5.50;;;5.10;;
5297;SDS011;14738;42.668;23.250;2023-06-10T09:57:53;7.87;;;4.40;;
5297;SDS011;14738;42.668;23.250;2023-06-10T10:00:19;5.17;;;4.77;;
5297;SDS011;14738;42.668;23.250;2023-06-10T10:02:48;4.80;;;4.40;;
5297;SDS011;14738;42.668;23.250;2023-06-10T10:05:18;5.00;;;4.67;;
5297;SDS011;14738;42.668;23.250;2023-06-10T10:07:45;5.57;;;5.17;;
5297;SDS011;14738;42.668;23.250;2023-06-10T10:10:11;5.60;;;5.20;;
5297;SDS011;14738;42.668;23.250;2023-06-10T10:12:38;5.23;;;4.77;;
5297;SDS011;14738;42.668;23.250;2023-06-10T10:15:07;6.00;;;5.40;;
5297;SDS011;14738;42.668;23.250;2023-06-10T10:17:36;8.90;;;4.90;;
5297;SDS011;14738;42.668;23.250;2023-06-10T10:20:05;5.50;;;5.20;;
5297;SDS011;14738;42.668;23.250;2023-06-10T10:22:38;5.70;;;5.30;;
5297;SDS011;14738;42.668;23.250;2023-06-10T10:25:16;10.37;;;5.43;;
5297;SDS011;14738;42.668;23.250;2023-06-10T10:27:51;5.20;;;4.90;;
5297;SDS011;14738;42.668;23.250;2023-06-10T10:30:20;6.60;;;5.83;;
5297;SDS011;14738;42.668;23.250;2023-06-10T10:35:30;5.37;;;4.90;;
5297;SDS011;14738;42.668;23.250;2023-06-10T10:37:57;5.97;;;5.50;;
5297;SDS011;14738;42.668;23.250;2023-06-10T10:40:23;6.23;;;5.73;;
5297;SDS011;14738;42.668;23.250;2023-06-10T10:42:50;5.20;;;4.70;;
5297;SDS011;14738;42.668;23.250;2023-06-10T10:45:16;5.07;;;4.70;;
5297;SDS011;14738;42.668;23.250;2023-06-10T10:47:45;4.63;;;4.33;;
5297;SDS011;14738;42.668;23.250;2023-06-10T10:50:15;4.50;;;4.20;;
5297;SDS011;14738;42.668;23.250;2023-06-10T10:55:16;4.23;;;4.00;;
5297;SDS011;14738;42.668;23.250;2023-06-10T10:57:41;4.47;;;4.13;;
5297;SDS011;14738;42.668;23.250;2023-06-10T11:00:06;5.53;;;5.03;;
5297;SDS011;14738;42.668;23.250;2023-06-10T11:02:49;5.17;;;4.77;;
5297;SDS011;14738;42.668;23.250;2023-06-10T11:05:18;6.00;;;4.33;;
5297;SDS011;14738;42.668;23.250;2023-06-10T11:07:57;3.77;;;3.57;;
5297;SDS011;14738;42.668;23.250;2023-06-10T11:10:32;4.40;;;4.10;;
5297;SDS011;14738;42.668;23.250;2023-06-10T11:13:00;5.67;;;4.80;;
5297;SDS011;14738;42.668;23.250;2023-06-10T11:15:31;4.37;;;4.17;;
5297;SDS011;14738;42.668;23.250;2023-06-10T11:18:06;5.17;;;4.20;;
5297;SDS011;14738;42.668;23.250;2023-06-10T11:31:24;4.00;;;3.80;;
5297;SDS011;14738;42.668;23.250;2023-06-10T11:33:58;4.63;;;4.27;;
5297;SDS011;14738;42.668;23.250;2023-06-10T11:36:32;5.37;;;4.87;;
5297;SDS011;14738;42.668;23.250;2023-06-10T11:39:00;4.77;;;4.47;;
5297;SDS011;14738;42.668;23.250;2023-06-10T11:41:28;5.10;;;4.60;;
5297;SDS011;14738;42.668;23.250;2023-06-10T11:43:56;5.10;;;4.70;;
5297;SDS011;14738;42.668;23.250;2023-06-10T11:46:26;4.97;;;4.50;;
5297;SDS011;14738;42.668;23.250;2023-06-10T11:48:53;5.77;;;4.03;;
5297;SDS011;14738;42.668;23.250;2023-06-10T11:51:24;4.40;;;4.10;;
5297;SDS011;14738;42.668;23.250;2023-06-10T11:53:51;5.07;;;4.67;;
5297;SDS011;14738;42.668;23.250;2023-06-10T11:56:20;4.67;;;4.27;;
5297;SDS011;14738;42.668;23.250;2023-06-10T11:58:55;4.87;;;4.47;;
5297;SDS011;14738;42.668;23.250;2023-06-10T12:01:23;5.03;;;4.70;;
5297;SDS011;14738;42.668;23.250;2023-06-10T12:03:59;5.80;;;5.37;;
5297;SDS011;14738;42.668;23.250;2023-06-10T12:06:26;5.37;;;5.00;;
5297;SDS011;14738;42.668;23.250;2023-06-10T12:08:53;4.93;;;4.63;;
5297;SDS011;14738;42.668;23.250;2023-06-10T12:11:20;5.13;;;4.70;;
5297;SDS011;14738;42.668;23.250;2023-06-10T12:13:46;5.77;;;5.27;;
5297;SDS011;14738;42.668;23.250;2023-06-10T12:16:15;5.43;;;4.97;;
5297;SDS011;14738;42.668;23.250;2023-06-10T12:18:43;6.10;;;5.60;;
5297;SDS011;14738;42.668;23.250;2023-06-10T12:21:19;8.20;;;4.97;;
5297;SDS011;14738;42.668;23.250;2023-06-10T12:29:01;5.97;;;4.83;;
5297;SDS011;14738;42.668;23.250;2023-06-10T12:34:28;5.37;;;4.97;;
5297;SDS011;14738;42.668;23.250;2023-06-10T12:36:58;5.60;;;4.43;;
5297;SDS011;14738;42.668;23.250;2023-06-10T12:39:24;8.13;;;4.90;;
5297;SDS011;14738;42.668;23.250;2023-06-10T12:41:50;4.90;;;4.60;;
5297;SDS011;14738;42.668;23.250;2023-06-10T12:44:16;4.53;;;4.23;;
5297;SDS011;14738;42.668;23.250;2023-06-10T12:46:41;4.80;;;4.50;;
5297;SDS011;14738;42.668;23.250;2023-06-10T12:49:07;4.53;;;4.23;;
5297;SDS011;14738;42.668;23.250;2023-06-10T12:51:32;5.60;;;5.17;;
5297;SDS011;14738;42.668;23.250;2023-06-10T12:53:59;4.13;;;3.73;;
5297;SDS011;14738;42.668;23.250;2023-06-10T12:56:25;4.43;;;4.03;;
5297;SDS011;14738;42.668;23.250;2023-06-10T12:58:50;4.60;;;4.30;;
5297;SDS011;14738;42.668;23.250;2023-06-10T13:01:16;4.70;;;4.40;;
5297;SDS011;14738;42.668;23.250;2023-06-10T13:03:41;5.57;;;5.07;;
5297;SDS011;14738;42.668;23.250;2023-06-10T13:06:07;5.37;;;4.87;;
5297;SDS011;14738;42.668;23.250;2023-06-10T13:08:32;4.77;;;4.37;;
5297;SDS011;14738;42.668;23.250;2023-06-10T13:10:58;4.67;;;4.37;;
5297;SDS011;14738;42.668;23.250;2023-06-10T13:13:24;5.83;;;5.33;;
5297;SDS011;14738;42.668;23.250;2023-06-10T13:15:50;9.33;;;5.03;;
5297;SDS011;14738;42.668;23.250;2023-06-10T13:18:16;5.00;;;4.60;;
5297;SDS011;14738;42.668;23.250;2023-06-10T13:20:44;6.67;;;5.17;;
5297;SDS011;14738;42.668;23.250;2023-06-10T13:23:10;6.37;;;5.33;;
5297;SDS011;14738;42.668;23.250;2023-06-10T13:25:35;5.80;;;5.20;;
5297;SDS011;14738;42.668;23.250;2023-06-10T13:28:01;4.93;;;4.53;;
5297;SDS011;14738;42.668;23.250;2023-06-10T13:30:27;5.73;;;5.20;;
5297;SDS011;14738;42.668;23.250;2023-06-10T13:32:52;6.00;;;5.50;;
5297;SDS011;14738;42.668;23.250;2023-06-10T13:35:18;10.20;;;6.63;;
5297;SDS011;14738;42.668;23.250;2023-06-10T13:37:44;19.60;;;8.70;;
5297;SDS011;14738;42.668;23.250;2023-06-10T13:40:10;15.03;;;8.40;;
5297;SDS011;14738;42.668;23.250;2023-06-10T13:42:37;7.63;;;6.30;;
5297;SDS011;14738;42.668;23.250;2023-06-10T13:45:03;6.40;;;5.90;;
5297;SDS011;14738;42.668;23.250;2023-06-10T13:47:29;5.47;;;5.00;;
5297;SDS011;14738;42.668;23.250;2023-06-10T13:49:55;7.27;;;6.57;;
5297;SDS011;14738;42.668;23.250;2023-06-10T13:52:20;6.30;;;5.70;;
5297;SDS011;14738;42.668;23.250;2023-06-10T13:54:45;6.90;;;6.07;;
5297;SDS011;14738;42.668;23.250;2023-06-10T13:57:11;8.77;;;5.47;;
5297;SDS011;14738;42.668;23.250;2023-06-10T13:59:36;5.60;;;5.20;;
5297;SDS011;14738;42.668;23.250;2023-06-10T14:02:02;5.50;;;5.10;;
5297;SDS011;14738;42.668;23.250;2023-06-10T14:04:27;7.50;;;5.40;;
5297;SDS011;14738;42.668;23.250;2023-06-10T14:06:53;9.00;;;5.60;;
5297;SDS011;14738;42.668;23.250;2023-06-10T14:09:18;6.00;;;5.17;;
5297;SDS011;14738;42.668;23.250;2023-06-10T14:11:44;8.67;;;6.10;;
5297;SDS011;14738;42.668;23.250;2023-06-10T14:14:09;6.30;;;5.80;;
5297;SDS011;14738;42.668;23.250;2023-06-10T14:16:35;5.97;;;5.43;;
5297;SDS011;14738;42.668;23.250;2023-06-10T14:19:01;5.10;;;4.80;;
5297;SDS011;14738;42.668;23.250;2023-06-10T14:21:26;5.30;;;4.90;;
5297;SDS011;14738;42.668;23.250;2023-06-10T14:23:51;5.97;;;5.43;;
5297;SDS011;14738;42.668;23.250;2023-06-10T14:26:18;6.10;;;5.60;;
5297;SDS011;14738;42.668;23.250;2023-06-10T14:28:44;6.43;;;5.87;;
5297;SDS011;14738;42.668;23.250;2023-06-10T14:31:09;5.87;;;5.10;;
5297;SDS011;14738;42.668;23.250;2023-06-10T14:33:35;6.53;;;5.17;;
5297;SDS011;14738;42.668;23.250;2023-06-10T14:36:01;4.67;;;4.37;;
5297;SDS011;14738;42.668;23.250;2023-06-10T14:38:26;5.90;;;5.40;;
5297;SDS011;14738;42.668;23.250;2023-06-10T14:40:51;5.60;;;5.10;;
5297;SDS011;14738;42.668;23.250;2023-06-10T14:43:17;5.63;;;5.20;;
5297;SDS011;14738;42.668;23.250;2023-06-10T14:45:43;6.53;;;5.93;;
5297;SDS011;14738;42.668;23.250;2023-06-10T14:48:09;7.83;;;6.43;;
5297;SDS011;14738;42.668;23.250;2023-06-10T14:50:34;6.97;;;5.57;;
5297;SDS011;14738;42.668;23.250;2023-06-10T14:53:00;13.00;;;6.90;;
5297;SDS011;14738;42.668;23.250;2023-06-10T14:55:25;9.40;;;6.80;;
5297;SDS011;14738;42.668;23.250;2023-06-10T14:57:51;6.33;;;5.87;;
5297;SDS011;14738;42.668;23.250;2023-06-10T15:00:17;6.83;;;6.10;;
5297;SDS011;14738;42.668;23.250;2023-06-10T15:02:47;5.73;;;5.07;;
5297;SDS011;14738;42.668;23.250;2023-06-10T15:05:13;9.10;;;5.53;;
5297;SDS011;14738;42.668;23.250;2023-06-10T15:07:40;5.93;;;5.40;;
5297;SDS011;14738;42.668;23.250;2023-06-10T15:10:06;6.00;;;5.60;;
5297;SDS011;14738;42.668;23.250;2023-06-10T15:12:31;6.20;;;5.60;;